sensor_id;sensor_type;location;lat;lon;timestamp;P1;durP1;ratioP1;P2;durP2;ratioP2
19879;SDS011;10102;50.828;4.416;2023-09-12T00:00:10;24.58;;;13.38;;
19879;SDS011;10102;50.828;4.416;2023-09-12T00:02:36;23.40;;;15.13;;
19879;SDS011;10102;50.828;4.416;2023-09-12T00:05:03;23.05;;;13.43;;
19879;SDS011;10102;50.828;4.416;2023-09-12T00:07:29;24.80;;;11.80;;
19879;SDS011;10102;50.828;4.416;2023-09-12T00:09:56;24.92;;;12.25;;
19879;SDS011;10102;50.828;4.416;2023-09-12T00:12:22;18.55;;;11.43;;
19879;SDS011;10102;50.828;4.416;2023-09-12T00:14:50;15.18;;;11.32;;
19879;SDS011;10102;50.828;4.416;2023-09-12T00:17:18;18.95;;;11.27;;
19879;SDS011;10102;50.828;4.416;2023-09-12T00:19:44;16.33;;;10.35;;
19879;SDS011;10102;50.828;4.416;2023-09-12T00:22:10;22.10;;;11.50;;
19879;SDS011;10102;50.828;4.416;2023-09-12T00:24:35;20.92;;;10.70;;
19879;SDS011;10102;50.828;4.416;2023-09-12T00:27:03;16.60;;;10.50;;
19879;SDS011;10102;50.828;4.416;2023-09-12T00:29:30;14.93;;;9.88;;
19879;SDS011;10102;50.828;4.416;2023-09-12T00:31:56;18.05;;;9.60;;
19879;SDS011;10102;50.828;4.416;2023-09-12T00:34:21;18.25;;;10.60;;
19879;SDS011;10102;50.828;4.416;2023-09-12T00:36:47;22.02;;;10.68;;
19879;SDS011;10102;50.828;4.416;2023-09-12T00:39:13;14.75;;;9.60;;
19879;SDS011;10102;50.828;4.416;2023-09-12T00:41:38;10.75;;;8.52;;
19879;SDS011;10102;50.828;4.416;2023-09-12T00:44:04;15.88;;;8.93;;
19879;SDS011;10102;50.828;4.416;2023-09-12T00:46:30;16.77;;;9.57;;
19879;SDS011;10102;50.828;4.416;2023-09-12T00:48:58;19.50;;;9.48;;
19879;SDS011;10102;50.828;4.416;2023-09-12T00:51:24;17.40;;;9.65;;
19879;SDS011;10102;50.828;4.416;2023-09-12T00:53:51;15.13;;;10.98;;
19879;SDS011;10102;50.828;4.416;2023-09-12T00:56:18;14.00;;;8.82;;
19879;SDS011;10102;50.828;4.416;2023-09-12T00:58:44;19.77;;;10.95;;
19879;SDS011;10102;50.828;4.416;2023-09-12T01:01:11;23.05;;;11.30;;
19879;SDS011;10102;50.828;4.416;2023-09-12T01:03:37;17.65;;;11.90;;
19879;SDS011;10102;50.828;4.416;2023-09-12T01:06:03;18.67;;;10.77;;
19879;SDS011;10102;50.828;4.416;2023-09-12T01:08:31;20.40;;;10.60;;
19879;SDS011;10102;50.828;4.416;2023-09-12T01:10:57;15.35;;;10.52;;
19879;SDS011;10102;50.828;4.416;2023-09-12T01:13:24;18.20;;;11.48;;
19879;SDS011;10102;50.828;4.416;2023-09-12T01:15:50;18.92;;;11.30;;
19879;SDS011;10102;50.828;4.416;2023-09-12T01:18:16;18.23;;;12.07;;
19879;SDS011;10102;50.828;4.416;2023-09-12T01:20:41;18.27;;;12.05;;
19879;SDS011;10102;50.828;4.416;2023-09-12T01:26:49;23.27;;;12.52;;
19879;SDS011;10102;50.828;4.416;2023-09-12T01:29:38;19.48;;;12.38;;
19879;SDS011;10102;50.828;4.416;2023-09-12T01:32:05;17.27;;;11.25;;
19879;SDS011;10102;50.828;4.416;2023-09-12T01:34:31;23.92;;;12.88;;
19879;SDS011;10102;50.828;4.416;2023-09-12T01:36:57;21.20;;;11.65;;
19879;SDS011;10102;50.828;4.416;2023-09-12T01:39:23;17.73;;;11.60;;
19879;SDS011;10102;50.828;4.416;2023-09-12T01:41:49;18.58;;;11.15;;
19879;SDS011;10102;50.828;4.416;2023-09-12T01:44:18;19.73;;;11.95;;
19879;SDS011;10102;50.828;4.416;2023-09-12T01:46:49;21.02;;;10.98;;
19879;SDS011;10102;50.828;4.416;2023-09-12T01:49:19;19.00;;;10.65;;
19879;SDS011;10102;50.828;4.416;2023-09-12T01:51:49;20.25;;;11.75;;
19879;SDS011;10102;50.828;4.416;2023-09-12T01:54:15;16.48;;;10.88;;
19879;SDS011;10102;50.828;4.416;2023-09-12T01:56:42;21.23;;;13.20;;
19879;SDS011;10102;50.828;4.416;2023-09-12T01:59:10;25.08;;;13.85;;
19879;SDS011;10102;50.828;4.416;2023-09-12T02:01:37;21.95;;;14.65;;
19879;SDS011;10102;50.828;4.416;2023-09-12T02:04:04;21.80;;;14.48;;
19879;SDS011;10102;50.828;4.416;2023-09-12T02:06:34;24.17;;;13.40;;
19879;SDS011;10102;50.828;4.416;2023-09-12T02:09:00;17.33;;;12.10;;
19879;SDS011;10102;50.828;4.416;2023-09-12T02:11:26;19.95;;;12.43;;
19879;SDS011;10102;50.828;4.416;2023-09-12T02:13:52;20.02;;;13.05;;
19879;SDS011;10102;50.828;4.416;2023-09-12T02:16:18;24.65;;;14.88;;
19879;SDS011;10102;50.828;4.416;2023-09-12T02:18:45;24.92;;;13.23;;
19879;SDS011;10102;50.828;4.416;2023-09-12T02:21:11;21.75;;;13.80;;
19879;SDS011;10102;50.828;4.416;2023-09-12T02:23:37;24.65;;;14.32;;
19879;SDS011;10102;50.828;4.416;2023-09-12T02:26:03;23.77;;;12.90;;
19879;SDS011;10102;50.828;4.416;2023-09-12T02:28:28;22.02;;;12.95;;
19879;SDS011;10102;50.828;4.416;2023-09-12T02:30:54;18.27;;;12.35;;
19879;SDS011;10102;50.828;4.416;2023-09-12T02:33:20;21.92;;;13.05;;
19879;SDS011;10102;50.828;4.416;2023-09-12T02:35:46;23.23;;;13.00;;
19879;SDS011;10102;50.828;4.416;2023-09-12T02:38:12;22.10;;;13.75;;
19879;SDS011;10102;50.828;4.416;2023-09-12T02:40:38;24.58;;;16.17;;
19879;SDS011;10102;50.828;4.416;2023-09-12T02:43:04;25.65;;;15.73;;
19879;SDS011;10102;50.828;4.416;2023-09-12T02:45:30;34.55;;;18.58;;
19879;SDS011;10102;50.828;4.416;2023-09-12T02:47:56;34.50;;;19.35;;
19879;SDS011;10102;50.828;4.416;2023-09-12T02:50:22;41.95;;;25.20;;
19879;SDS011;10102;50.828;4.416;2023-09-12T02:52:48;48.60;;;27.98;;
19879;SDS011;10102;50.828;4.416;2023-09-12T02:55:13;44.20;;;26.90;;
19879;SDS011;10102;50.828;4.416;2023-09-12T02:57:39;50.50;;;27.92;;
19879;SDS011;10102;50.828;4.416;2023-09-12T03:00:05;47.80;;;27.63;;
19879;SDS011;10102;50.828;4.416;2023-09-12T03:02:33;49.38;;;26.65;;
19879;SDS011;10102;50.828;4.416;2023-09-12T03:04:59;49.28;;;27.25;;
19879;SDS011;10102;50.828;4.416;2023-09-12T03:07:26;47.70;;;26.83;;
19879;SDS011;10102;50.828;4.416;2023-09-12T03:09:52;48.03;;;28.27;;
19879;SDS011;10102;50.828;4.416;2023-09-12T03:12:18;46.45;;;26.27;;
19879;SDS011;10102;50.828;4.416;2023-09-12T03:14:45;48.17;;;26.48;;
19879;SDS011;10102;50.828;4.416;2023-09-12T03:17:11;49.28;;;28.75;;
19879;SDS011;10102;50.828;4.416;2023-09-12T03:19:36;52.55;;;29.83;;
19879;SDS011;10102;50.828;4.416;2023-09-12T03:22:03;46.65;;;29.40;;
19879;SDS011;10102;50.828;4.416;2023-09-12T03:24:29;52.80;;;29.35;;
19879;SDS011;10102;50.828;4.416;2023-09-12T03:26:55;54.97;;;31.85;;
19879;SDS011;10102;50.828;4.416;2023-09-12T03:29:21;50.45;;;30.92;;
19879;SDS011;10102;50.828;4.416;2023-09-12T03:31:48;57.03;;;31.15;;
19879;SDS011;10102;50.828;4.416;2023-09-12T03:34:14;52.50;;;28.13;;
19879;SDS011;10102;50.828;4.416;2023-09-12T03:36:40;53.45;;;29.08;;
19879;SDS011;10102;50.828;4.416;2023-09-12T03:39:05;49.65;;;28.58;;
19879;SDS011;10102;50.828;4.416;2023-09-12T03:41:34;50.65;;;28.25;;
19879;SDS011;10102;50.828;4.416;2023-09-12T03:44:00;46.30;;;28.00;;
19879;SDS011;10102;50.828;4.416;2023-09-12T03:46:27;49.83;;;29.17;;
19879;SDS011;10102;50.828;4.416;2023-09-12T03:48:53;49.58;;;28.50;;
19879;SDS011;10102;50.828;4.416;2023-09-12T03:51:19;45.70;;;27.95;;
19879;SDS011;10102;50.828;4.416;2023-09-12T03:53:44;48.10;;;26.33;;
19879;SDS011;10102;50.828;4.416;2023-09-12T03:56:13;51.03;;;29.58;;
19879;SDS011;10102;50.828;4.416;2023-09-12T03:58:41;52.40;;;29.45;;
19879;SDS011;10102;50.828;4.416;2023-09-12T04:01:06;55.58;;;29.20;;
19879;SDS011;10102;50.828;4.416;2023-09-12T04:03:33;46.17;;;26.05;;
19879;SDS011;10102;50.828;4.416;2023-09-12T04:05:59;41.22;;;22.08;;
19879;SDS011;10102;50.828;4.416;2023-09-12T04:08:25;26.85;;;16.95;;
19879;SDS011;10102;50.828;4.416;2023-09-12T04:10:51;27.77;;;17.13;;
19879;SDS011;10102;50.828;4.416;2023-09-12T04:13:17;28.80;;;16.85;;
19879;SDS011;10102;50.828;4.416;2023-09-12T04:15:43;33.95;;;18.50;;
19879;SDS011;10102;50.828;4.416;2023-09-12T04:18:08;36.22;;;19.48;;
19879;SDS011;10102;50.828;4.416;2023-09-12T04:20:34;32.22;;;19.58;;
19879;SDS011;10102;50.828;4.416;2023-09-12T04:23:00;33.15;;;18.98;;
19879;SDS011;10102;50.828;4.416;2023-09-12T04:25:30;51.03;;;29.05;;
19879;SDS011;10102;50.828;4.416;2023-09-12T04:27:56;41.72;;;23.23;;
19879;SDS011;10102;50.828;4.416;2023-09-12T04:30:23;41.05;;;22.80;;
19879;SDS011;10102;50.828;4.416;2023-09-12T04:32:49;31.95;;;18.25;;
19879;SDS011;10102;50.828;4.416;2023-09-12T04:35:15;39.83;;;20.27;;
19879;SDS011;10102;50.828;4.416;2023-09-12T04:37:41;33.33;;;19.38;;
19879;SDS011;10102;50.828;4.416;2023-09-12T04:40:07;36.63;;;19.27;;
19879;SDS011;10102;50.828;4.416;2023-09-12T04:42:33;31.17;;;19.67;;
19879;SDS011;10102;50.828;4.416;2023-09-12T04:44:59;38.63;;;18.92;;
19879;SDS011;10102;50.828;4.416;2023-09-12T04:47:25;28.33;;;17.83;;
19879;SDS011;10102;50.828;4.416;2023-09-12T04:49:53;36.00;;;18.95;;
19879;SDS011;10102;50.828;4.416;2023-09-12T04:52:19;32.95;;;19.17;;
19879;SDS011;10102;50.828;4.416;2023-09-12T04:54:45;35.22;;;19.75;;
19879;SDS011;10102;50.828;4.416;2023-09-12T04:57:11;30.33;;;17.75;;
19879;SDS011;10102;50.828;4.416;2023-09-12T04:59:38;28.60;;;18.05;;
19879;SDS011;10102;50.828;4.416;2023-09-12T05:02:04;30.95;;;18.27;;
19879;SDS011;10102;50.828;4.416;2023-09-12T05:04:31;28.48;;;18.02;;
19879;SDS011;10102;50.828;4.416;2023-09-12T05:06:58;30.45;;;18.45;;
19879;SDS011;10102;50.828;4.416;2023-09-12T05:09:24;30.67;;;18.27;;
19879;SDS011;10102;50.828;4.416;2023-09-12T05:11:49;35.50;;;18.45;;
19879;SDS011;10102;50.828;4.416;2023-09-12T05:14:17;37.33;;;19.77;;
19879;SDS011;10102;50.828;4.416;2023-09-12T05:16:42;34.25;;;18.02;;
19879;SDS011;10102;50.828;4.416;2023-09-12T05:19:08;36.72;;;18.65;;
19879;SDS011;10102;50.828;4.416;2023-09-12T05:21:34;33.92;;;20.23;;
19879;SDS011;10102;50.828;4.416;2023-09-12T05:24:00;31.42;;;20.25;;
19879;SDS011;10102;50.828;4.416;2023-09-12T05:26:26;33.92;;;20.10;;
19879;SDS011;10102;50.828;4.416;2023-09-12T05:28:52;31.58;;;19.00;;
19879;SDS011;10102;50.828;4.416;2023-09-12T05:31:18;30.45;;;20.15;;
19879;SDS011;10102;50.828;4.416;2023-09-12T05:33:45;36.10;;;20.70;;
19879;SDS011;10102;50.828;4.416;2023-09-12T05:36:11;45.90;;;21.80;;
19879;SDS011;10102;50.828;4.416;2023-09-12T05:38:36;38.08;;;20.90;;
19879;SDS011;10102;50.828;4.416;2023-09-12T05:41:02;38.58;;;20.33;;
19879;SDS011;10102;50.828;4.416;2023-09-12T05:43:28;34.28;;;21.42;;
19879;SDS011;10102;50.828;4.416;2023-09-12T05:45:55;35.95;;;19.55;;
19879;SDS011;10102;50.828;4.416;2023-09-12T05:48:22;33.95;;;19.40;;
19879;SDS011;10102;50.828;4.416;2023-09-12T05:50:48;42.28;;;23.33;;
19879;SDS011;10102;50.828;4.416;2023-09-12T05:53:14;29.27;;;19.95;;
19879;SDS011;10102;50.828;4.416;2023-09-12T05:55:40;37.97;;;21.23;;
19879;SDS011;10102;50.828;4.416;2023-09-12T05:58:06;39.03;;;20.52;;
19879;SDS011;10102;50.828;4.416;2023-09-12T06:00:32;33.72;;;18.70;;
19879;SDS011;10102;50.828;4.416;2023-09-12T06:02:58;34.92;;;19.15;;
19879;SDS011;10102;50.828;4.416;2023-09-12T06:05:24;34.13;;;20.30;;
19879;SDS011;10102;50.828;4.416;2023-09-12T06:07:50;35.70;;;19.70;;
19879;SDS011;10102;50.828;4.416;2023-09-12T06:10:16;32.65;;;20.73;;
19879;SDS011;10102;50.828;4.416;2023-09-12T06:12:42;30.35;;;19.08;;
19879;SDS011;10102;50.828;4.416;2023-09-12T06:15:08;35.60;;;19.38;;
19879;SDS011;10102;50.828;4.416;2023-09-12T06:17:34;37.30;;;19.42;;
19879;SDS011;10102;50.828;4.416;2023-09-12T06:20:00;44.90;;;19.80;;
19879;SDS011;10102;50.828;4.416;2023-09-12T06:22:28;35.60;;;18.42;;
19879;SDS011;10102;50.828;4.416;2023-09-12T06:24:54;31.50;;;18.75;;
19879;SDS011;10102;50.828;4.416;2023-09-12T06:27:19;39.22;;;22.00;;
19879;SDS011;10102;50.828;4.416;2023-09-12T06:29:46;37.10;;;20.80;;
19879;SDS011;10102;50.828;4.416;2023-09-12T06:32:13;33.50;;;19.98;;
19879;SDS011;10102;50.828;4.416;2023-09-12T06:34:40;33.83;;;21.20;;
19879;SDS011;10102;50.828;4.416;2023-09-12T06:37:06;41.63;;;22.00;;
19879;SDS011;10102;50.828;4.416;2023-09-12T06:39:32;36.20;;;21.42;;
19879;SDS011;10102;50.828;4.416;2023-09-12T06:41:58;34.22;;;20.95;;
19879;SDS011;10102;50.828;4.416;2023-09-12T06:44:24;34.45;;;20.80;;
19879;SDS011;10102;50.828;4.416;2023-09-12T06:46:50;43.88;;;19.60;;
19879;SDS011;10102;50.828;4.416;2023-09-12T06:49:16;34.63;;;19.67;;
19879;SDS011;10102;50.828;4.416;2023-09-12T06:51:41;39.75;;;19.77;;
19879;SDS011;10102;50.828;4.416;2023-09-12T06:54:07;39.55;;;18.80;;
19879;SDS011;10102;50.828;4.416;2023-09-12T06:56:33;31.48;;;18.70;;
19879;SDS011;10102;50.828;4.416;2023-09-12T06:59:02;34.70;;;21.40;;
19879;SDS011;10102;50.828;4.416;2023-09-12T07:01:31;39.72;;;21.00;;
19879;SDS011;10102;50.828;4.416;2023-09-12T07:03:57;43.47;;;21.55;;
19879;SDS011;10102;50.828;4.416;2023-09-12T07:06:23;36.40;;;20.52;;
19879;SDS011;10102;50.828;4.416;2023-09-12T07:08:50;44.78;;;21.00;;
19879;SDS011;10102;50.828;4.416;2023-09-12T07:11:19;34.25;;;20.63;;
19879;SDS011;10102;50.828;4.416;2023-09-12T07:13:45;32.95;;;19.55;;
19879;SDS011;10102;50.828;4.416;2023-09-12T07:16:11;37.53;;;20.75;;
19879;SDS011;10102;50.828;4.416;2023-09-12T07:21:05;41.95;;;21.95;;
19879;SDS011;10102;50.828;4.416;2023-09-12T07:23:44;40.35;;;22.88;;
19879;SDS011;10102;50.828;4.416;2023-09-12T07:26:13;40.00;;;22.33;;
19879;SDS011;10102;50.828;4.416;2023-09-12T07:31:17;38.55;;;21.30;;
19879;SDS011;10102;50.828;4.416;2023-09-12T07:33:44;38.78;;;21.77;;
19879;SDS011;10102;50.828;4.416;2023-09-12T07:36:13;42.22;;;22.95;;
19879;SDS011;10102;50.828;4.416;2023-09-12T07:38:40;35.38;;;21.60;;
19879;SDS011;10102;50.828;4.416;2023-09-12T07:41:07;38.92;;;21.75;;
19879;SDS011;10102;50.828;4.416;2023-09-12T07:43:34;34.85;;;21.10;;
19879;SDS011;10102;50.828;4.416;2023-09-12T07:46:01;32.28;;;20.20;;
19879;SDS011;10102;50.828;4.416;2023-09-12T07:48:27;44.80;;;20.40;;
19879;SDS011;10102;50.828;4.416;2023-09-12T07:50:53;35.97;;;20.05;;
19879;SDS011;10102;50.828;4.416;2023-09-12T07:53:19;35.47;;;18.70;;
19879;SDS011;10102;50.828;4.416;2023-09-12T07:55:45;36.45;;;19.08;;
19879;SDS011;10102;50.828;4.416;2023-09-12T07:58:12;33.25;;;18.52;;
19879;SDS011;10102;50.828;4.416;2023-09-12T08:00:43;31.98;;;17.95;;
19879;SDS011;10102;50.828;4.416;2023-09-12T08:03:09;28.73;;;18.23;;
19879;SDS011;10102;50.828;4.416;2023-09-12T08:05:35;39.03;;;18.17;;
19879;SDS011;10102;50.828;4.416;2023-09-12T08:08:01;39.00;;;19.17;;
19879;SDS011;10102;50.828;4.416;2023-09-12T08:10:27;26.98;;;16.10;;
19879;SDS011;10102;50.828;4.416;2023-09-12T08:12:54;39.22;;;16.98;;
19879;SDS011;10102;50.828;4.416;2023-09-12T08:15:20;39.15;;;18.27;;
19879;SDS011;10102;50.828;4.416;2023-09-12T08:17:46;31.60;;;17.73;;
19879;SDS011;10102;50.828;4.416;2023-09-12T08:20:17;26.20;;;15.95;;
19879;SDS011;10102;50.828;4.416;2023-09-12T08:22:43;28.25;;;17.92;;
19879;SDS011;10102;50.828;4.416;2023-09-12T08:25:09;31.63;;;16.30;;
19879;SDS011;10102;50.828;4.416;2023-09-12T08:27:35;33.47;;;18.08;;
19879;SDS011;10102;50.828;4.416;2023-09-12T08:30:03;32.17;;;17.05;;
19879;SDS011;10102;50.828;4.416;2023-09-12T08:32:29;30.30;;;17.33;;
19879;SDS011;10102;50.828;4.416;2023-09-12T08:34:55;31.02;;;17.92;;
19879;SDS011;10102;50.828;4.416;2023-09-12T08:37:21;32.63;;;18.58;;
19879;SDS011;10102;50.828;4.416;2023-09-12T08:39:47;29.02;;;17.02;;
19879;SDS011;10102;50.828;4.416;2023-09-12T08:42:15;31.40;;;17.15;;
19879;SDS011;10102;50.828;4.416;2023-09-12T08:44:42;31.25;;;15.88;;
19879;SDS011;10102;50.828;4.416;2023-09-12T08:47:08;29.77;;;18.02;;
19879;SDS011;10102;50.828;4.416;2023-09-12T08:49:37;30.95;;;16.70;;
19879;SDS011;10102;50.828;4.416;2023-09-12T08:52:04;27.65;;;15.57;;
19879;SDS011;10102;50.828;4.416;2023-09-12T08:54:31;30.00;;;16.27;;
19879;SDS011;10102;50.828;4.416;2023-09-12T08:56:57;32.15;;;15.25;;
19879;SDS011;10102;50.828;4.416;2023-09-12T08:59:23;25.48;;;16.00;;
19879;SDS011;10102;50.828;4.416;2023-09-12T09:01:49;24.83;;;15.43;;
19879;SDS011;10102;50.828;4.416;2023-09-12T09:04:18;20.27;;;13.70;;
19879;SDS011;10102;50.828;4.416;2023-09-12T09:06:45;34.63;;;15.52;;
19879;SDS011;10102;50.828;4.416;2023-09-12T09:09:11;31.83;;;15.20;;
19879;SDS011;10102;50.828;4.416;2023-09-12T09:11:38;21.40;;;11.75;;
19879;SDS011;10102;50.828;4.416;2023-09-12T09:14:04;30.17;;;14.00;;
19879;SDS011;10102;50.828;4.416;2023-09-12T09:16:30;21.58;;;10.95;;
19879;SDS011;10102;50.828;4.416;2023-09-12T09:21:31;21.38;;;10.93;;
19879;SDS011;10102;50.828;4.416;2023-09-12T09:23:59;24.70;;;11.65;;
19879;SDS011;10102;50.828;4.416;2023-09-12T09:26:40;24.73;;;11.20;;
19879;SDS011;10102;50.828;4.416;2023-09-12T09:29:13;18.73;;;10.80;;
19879;SDS011;10102;50.828;4.416;2023-09-12T09:31:43;19.70;;;9.70;;
19879;SDS011;10102;50.828;4.416;2023-09-12T09:34:14;15.93;;;8.88;;
19879;SDS011;10102;50.828;4.416;2023-09-12T09:36:42;20.55;;;9.50;;
19879;SDS011;10102;50.828;4.416;2023-09-12T09:39:18;14.35;;;9.48;;
19879;SDS011;10102;50.828;4.416;2023-09-12T09:41:52;15.73;;;8.82;;
19879;SDS011;10102;50.828;4.416;2023-09-12T09:44:21;17.10;;;8.60;;
19879;SDS011;10102;50.828;4.416;2023-09-12T09:46:52;14.45;;;8.85;;
19879;SDS011;10102;50.828;4.416;2023-09-12T09:49:28;19.05;;;9.32;;
19879;SDS011;10102;50.828;4.416;2023-09-12T09:51:56;9.73;;;6.43;;
19879;SDS011;10102;50.828;4.416;2023-09-12T09:54:24;14.65;;;8.52;;
19879;SDS011;10102;50.828;4.416;2023-09-12T09:56:57;20.58;;;9.85;;
19879;SDS011;10102;50.828;4.416;2023-09-12T09:59:24;16.60;;;9.80;;
19879;SDS011;10102;50.828;4.416;2023-09-12T10:01:51;14.30;;;7.95;;
19879;SDS011;10102;50.828;4.416;2023-09-12T10:04:22;16.38;;;8.35;;
19879;SDS011;10102;50.828;4.416;2023-09-12T10:06:49;16.17;;;9.18;;
19879;SDS011;10102;50.828;4.416;2023-09-12T10:09:15;16.63;;;9.07;;
19879;SDS011;10102;50.828;4.416;2023-09-12T10:11:46;19.10;;;9.48;;
19879;SDS011;10102;50.828;4.416;2023-09-12T10:14:13;11.23;;;8.13;;
19879;SDS011;10102;50.828;4.416;2023-09-12T10:16:45;20.00;;;10.63;;
19879;SDS011;10102;50.828;4.416;2023-09-12T10:21:59;18.83;;;9.23;;
19879;SDS011;10102;50.828;4.416;2023-09-12T10:24:32;18.02;;;7.32;;
19879;SDS011;10102;50.828;4.416;2023-09-12T10:27:00;18.63;;;9.40;;
19879;SDS011;10102;50.828;4.416;2023-09-12T10:29:27;17.23;;;8.80;;
19879;SDS011;10102;50.828;4.416;2023-09-12T10:31:54;16.33;;;10.30;;
19879;SDS011;10102;50.828;4.416;2023-09-12T10:34:20;19.55;;;11.30;;
19879;SDS011;10102;50.828;4.416;2023-09-12T10:36:46;16.45;;;9.63;;
19879;SDS011;10102;50.828;4.416;2023-09-12T10:39:13;16.95;;;10.30;;
19879;SDS011;10102;50.828;4.416;2023-09-12T10:41:41;16.73;;;9.00;;
19879;SDS011;10102;50.828;4.416;2023-09-12T10:44:11;14.02;;;7.60;;
19879;SDS011;10102;50.828;4.416;2023-09-12T10:46:41;9.68;;;6.45;;
19879;SDS011;10102;50.828;4.416;2023-09-12T10:49:11;11.40;;;5.93;;
19879;SDS011;10102;50.828;4.416;2023-09-12T10:51:40;18.15;;;7.97;;
19879;SDS011;10102;50.828;4.416;2023-09-12T10:54:08;13.27;;;7.68;;
19879;SDS011;10102;50.828;4.416;2023-09-12T10:56:37;14.07;;;8.50;;
19879;SDS011;10102;50.828;4.416;2023-09-12T11:01:29;17.38;;;9.38;;
19879;SDS011;10102;50.828;4.416;2023-09-12T11:03:56;11.15;;;8.10;;
19879;SDS011;10102;50.828;4.416;2023-09-12T11:06:24;15.68;;;8.48;;
19879;SDS011;10102;50.828;4.416;2023-09-12T11:11:42;10.63;;;6.85;;
19879;SDS011;10102;50.828;4.416;2023-09-12T11:14:11;11.90;;;8.32;;
19879;SDS011;10102;50.828;4.416;2023-09-12T11:16:37;13.77;;;9.43;;
19879;SDS011;10102;50.828;4.416;2023-09-12T11:19:19;15.82;;;8.88;;
19879;SDS011;10102;50.828;4.416;2023-09-12T11:21:51;8.70;;;6.65;;
19879;SDS011;10102;50.828;4.416;2023-09-12T11:24:19;10.55;;;7.07;;
19879;SDS011;10102;50.828;4.416;2023-09-12T11:27:19;12.18;;;6.05;;
19879;SDS011;10102;50.828;4.416;2023-09-12T11:29:38;10.57;;;6.75;;
19879;SDS011;10102;50.828;4.416;2023-09-12T11:32:05;7.82;;;5.78;;
19879;SDS011;10102;50.828;4.416;2023-09-12T11:34:36;11.07;;;5.65;;
19879;SDS011;10102;50.828;4.416;2023-09-12T11:37:09;7.88;;;4.80;;
19879;SDS011;10102;50.828;4.416;2023-09-12T11:39:39;8.35;;;4.82;;
19879;SDS011;10102;50.828;4.416;2023-09-12T11:42:07;7.75;;;3.92;;
19879;SDS011;10102;50.828;4.416;2023-09-12T11:44:38;6.80;;;4.68;;
19879;SDS011;10102;50.828;4.416;2023-09-12T11:47:05;8.52;;;4.80;;
19879;SDS011;10102;50.828;4.416;2023-09-12T11:49:38;5.93;;;4.90;;
19879;SDS011;10102;50.828;4.416;2023-09-12T11:52:12;11.68;;;5.88;;
19879;SDS011;10102;50.828;4.416;2023-09-12T11:54:41;8.85;;;4.90;;
19879;SDS011;10102;50.828;4.416;2023-09-12T11:57:09;10.05;;;4.60;;
19879;SDS011;10102;50.828;4.416;2023-09-12T11:59:39;7.95;;;4.47;;
19879;SDS011;10102;50.828;4.416;2023-09-12T12:02:06;5.88;;;4.30;;
19879;SDS011;10102;50.828;4.416;2023-09-12T12:04:33;14.68;;;5.55;;
19879;SDS011;10102;50.828;4.416;2023-09-12T12:07:00;9.55;;;5.00;;
19879;SDS011;10102;50.828;4.416;2023-09-12T12:09:32;10.48;;;4.35;;
19879;SDS011;10102;50.828;4.416;2023-09-12T12:14:38;8.45;;;3.85;;
19879;SDS011;10102;50.828;4.416;2023-09-12T12:17:08;9.20;;;4.30;;
19879;SDS011;10102;50.828;4.416;2023-09-12T12:19:37;8.65;;;4.78;;
19879;SDS011;10102;50.828;4.416;2023-09-12T12:22:04;9.52;;;5.22;;
19879;SDS011;10102;50.828;4.416;2023-09-12T12:24:39;6.43;;;4.93;;
19879;SDS011;10102;50.828;4.416;2023-09-12T12:27:11;10.05;;;5.15;;
19879;SDS011;10102;50.828;4.416;2023-09-12T12:29:39;9.57;;;5.00;;
19879;SDS011;10102;50.828;4.416;2023-09-12T12:32:05;7.80;;;4.97;;
19879;SDS011;10102;50.828;4.416;2023-09-12T12:34:31;9.18;;;4.90;;
19879;SDS011;10102;50.828;4.416;2023-09-12T12:36:57;6.15;;;4.30;;
19879;SDS011;10102;50.828;4.416;2023-09-12T12:39:23;6.60;;;4.70;;
19879;SDS011;10102;50.828;4.416;2023-09-12T12:41:51;7.35;;;4.75;;
19879;SDS011;10102;50.828;4.416;2023-09-12T12:44:18;9.82;;;5.60;;
19879;SDS011;10102;50.828;4.416;2023-09-12T12:49:17;5.70;;;4.70;;
19879;SDS011;10102;50.828;4.416;2023-09-12T12:51:44;9.07;;;5.10;;
19879;SDS011;10102;50.828;4.416;2023-09-12T12:54:11;10.30;;;5.75;;
19879;SDS011;10102;50.828;4.416;2023-09-12T12:56:36;8.68;;;4.90;;
19879;SDS011;10102;50.828;4.416;2023-09-12T12:59:05;6.88;;;4.43;;
19879;SDS011;10102;50.828;4.416;2023-09-12T13:01:34;8.90;;;5.55;;
19879;SDS011;10102;50.828;4.416;2023-09-12T13:04:01;7.65;;;5.35;;
19879;SDS011;10102;50.828;4.416;2023-09-12T13:06:29;11.55;;;5.20;;
19879;SDS011;10102;50.828;4.416;2023-09-12T13:08:55;10.48;;;5.35;;
19879;SDS011;10102;50.828;4.416;2023-09-12T13:11:26;10.65;;;5.65;;
19879;SDS011;10102;50.828;4.416;2023-09-12T13:13:52;7.45;;;4.68;;
19879;SDS011;10102;50.828;4.416;2023-09-12T13:16:18;7.93;;;5.50;;
19879;SDS011;10102;50.828;4.416;2023-09-12T13:18:44;7.88;;;4.88;;
19879;SDS011;10102;50.828;4.416;2023-09-12T13:21:10;11.95;;;5.78;;
19879;SDS011;10102;50.828;4.416;2023-09-12T13:23:37;8.35;;;5.55;;
19879;SDS011;10102;50.828;4.416;2023-09-12T13:26:04;11.27;;;6.30;;
19879;SDS011;10102;50.828;4.416;2023-09-12T13:28:31;8.90;;;5.97;;
19879;SDS011;10102;50.828;4.416;2023-09-12T13:30:57;11.20;;;6.30;;
19879;SDS011;10102;50.828;4.416;2023-09-12T13:33:24;12.90;;;6.55;;
19879;SDS011;10102;50.828;4.416;2023-09-12T13:35:49;8.40;;;6.22;;
19879;SDS011;10102;50.828;4.416;2023-09-12T13:38:16;9.73;;;6.90;;
19879;SDS011;10102;50.828;4.416;2023-09-12T13:40:44;14.07;;;7.22;;
19879;SDS011;10102;50.828;4.416;2023-09-12T13:43:11;12.70;;;6.53;;
19879;SDS011;10102;50.828;4.416;2023-09-12T13:45:37;11.77;;;6.57;;
19879;SDS011;10102;50.828;4.416;2023-09-12T13:48:03;11.15;;;6.78;;
19879;SDS011;10102;50.828;4.416;2023-09-12T13:50:30;11.00;;;6.20;;
19879;SDS011;10102;50.828;4.416;2023-09-12T13:53:00;15.82;;;6.45;;
19879;SDS011;10102;50.828;4.416;2023-09-12T13:55:32;8.25;;;6.35;;
19879;SDS011;10102;50.828;4.416;2023-09-12T13:58:05;9.32;;;6.45;;
19879;SDS011;10102;50.828;4.416;2023-09-12T14:00:32;10.68;;;6.93;;
19879;SDS011;10102;50.828;4.416;2023-09-12T14:03:00;14.45;;;7.60;;
19879;SDS011;10102;50.828;4.416;2023-09-12T14:05:32;14.18;;;7.50;;
19879;SDS011;10102;50.828;4.416;2023-09-12T14:07:58;13.15;;;7.68;;
19879;SDS011;10102;50.828;4.416;2023-09-12T14:10:24;13.60;;;7.43;;
19879;SDS011;10102;50.828;4.416;2023-09-12T14:12:50;12.13;;;8.25;;
19879;SDS011;10102;50.828;4.416;2023-09-12T14:15:16;14.30;;;7.22;;
19879;SDS011;10102;50.828;4.416;2023-09-12T14:17:41;12.88;;;8.23;;
19879;SDS011;10102;50.828;4.416;2023-09-12T14:20:07;17.13;;;8.02;;
19879;SDS011;10102;50.828;4.416;2023-09-12T14:22:34;12.52;;;8.02;;
19879;SDS011;10102;50.828;4.416;2023-09-12T14:25:00;15.38;;;8.25;;
19879;SDS011;10102;50.828;4.416;2023-09-12T14:27:27;12.13;;;8.70;;
19879;SDS011;10102;50.828;4.416;2023-09-12T14:29:53;14.27;;;8.80;;
19879;SDS011;10102;50.828;4.416;2023-09-12T14:32:20;12.98;;;8.25;;
19879;SDS011;10102;50.828;4.416;2023-09-12T14:34:45;13.77;;;8.15;;
19879;SDS011;10102;50.828;4.416;2023-09-12T14:37:11;15.13;;;8.45;;
19879;SDS011;10102;50.828;4.416;2023-09-12T14:39:37;11.95;;;7.90;;
19879;SDS011;10102;50.828;4.416;2023-09-12T14:42:03;10.93;;;7.82;;
19879;SDS011;10102;50.828;4.416;2023-09-12T14:44:34;14.43;;;7.85;;
19879;SDS011;10102;50.828;4.416;2023-09-12T14:47:01;10.02;;;7.63;;
19879;SDS011;10102;50.828;4.416;2023-09-12T14:49:27;15.82;;;7.10;;
19879;SDS011;10102;50.828;4.416;2023-09-12T14:51:53;11.75;;;6.95;;